ENSS

Vardø , Svartnes Airport

Vardø, Norway
METAR ENSS 251850Z 15006KT CAVOK 08/04 Q1017 RMK WIND 500FT 15011KT
Observed Flight Rules
May-25 @ 18:50 UTC (10 hours ago) Visual Flight Rules
Wind Visibility Clouds
150° at 6 knots 10,000+ meters
  • Clear skies
Temperatures Readings
Current 8°C / 46°F
Dewpoint 4°C / 39°F
Humidity 76%
Altimeter 30.03" Hg
Pressure 1017 hPa
Elevation 12
METAR ENSS 251850Z 15006KT CAVOK 08/04 Q1017 RMK WIND 500FT 15011KT
Observed Flight Rules
May-25 @ 18:50 UTC
(10 hours ago)
VFR
Wind Visibility
150° at 6 knots 10,000+ meters
Clouds
  • Clear skies
Temperature Dewpoint
8°C / 46°F 4°C / 39°F
Humidity Altimeter Pressure
76% 30.03" Hg 1017 hPa